This is the latest recevied weather packets stored in our database for station/object JP3QZN-13. If no packets are shown the sender has not sent any weather packets the latest 10 day(s).
| Time | Temp. | Humidity | Pressure | Rain* | Wind** | Luminosity | Snow |
|---|---|---|---|---|---|---|---|
| 1777181414 | 26.11° C | 40% | 1014.5 hPa | 0 mm | - | - | - |
| 1777179613 | 26.67° C | 39% | 1015.1 hPa | 0 mm | - | - | - |
| 1777177822 | 26.67° C | 38% | 1015.4 hPa | 0 mm | - | - | - |
| 1777176022 | 28.33° C | 36% | 1016.2 hPa | 0 mm | - | - | - |
| 1777172410 | 27.22° C | 37% | 1017.2 hPa | 0 mm | - | - | - |
| 1777168809 | 26.11° C | 40% | 1018.6 hPa | 0 mm | - | - | - |
| 1777167008 | 25° C | 41% | 1019.2 hPa | 0 mm | - | - | - |
| 1777165208 | 23.89° C | 43% | 1020.2 hPa | 0 mm | - | - | - |
| 1777163407 | 23.33° C | 45% | 1020.7 hPa | 0 mm | - | - | - |
| 1777161606 | 22.78° C | 47% | 1021 hPa | 0 mm | - | - | - |
| 1777159805 | 21.67° C | 50% | 1021.7 hPa | 0 mm | - | - | - |
| 1777156224 | 18.89° C | 56% | 1022.4 hPa | 0 mm | - | - | - |
| 1777154413 | 16.67° C | 61% | 1022.5 hPa | 0 mm | - | - | - |
| 1777150811 | 15.56° C | 64% | 1022.5 hPa | 0 mm | - | - | - |
| 1777149001 | 15.56° C | 65% | 1022.3 hPa | 0 mm | - | - | - |
| 1777147200 | 15.56° C | 65% | 1021.9 hPa | 0 mm | - | - | - |
| 1777145400 | 15.56° C | 64% | 1021.9 hPa | 0 mm | - | - | - |
| 1777143619 | 15.56° C | 64% | 1021.9 hPa | 0 mm | - | - | - |
| 1777141818 | 15.56° C | 64% | 1021.5 hPa | 0 mm | - | - | - |
| 1777140017 | 15.56° C | 63% | 1021.6 hPa | 0 mm | - | - | - |
| 1777138216 | 15.56° C | 61% | 1021.8 hPa | 0 mm | - | - | - |
| 1777136416 | 16.11° C | 62% | 1021.7 hPa | 0 mm | - | - | - |
| 1777134615 | 16.11° C | 61% | 1021.6 hPa | 0 mm | - | - | - |
| 1777132814 | 16.11° C | 61% | 1021.8 hPa | 0 mm | - | - | - |
| 1777129213 | 16.67° C | 59% | 1022 hPa | 0 mm | - | - | - |
* Rain latest hour (hover to see other rain measurements)
** Current wind speed in m/s (hover to see current wind gust speed)